Huvudsida
METAR-TAF:

METAR-TAF

Flygplatser :

Wilbarger County Airport

Vernon, Texas, USA

latitud: 34-13-32N, longitud: 099-17-01W, höjd: 386 m

Aktuellt väderrapport

Denna rapport gjordes för 17 minuter sedan, klockan 04:35 UTC
Vind 13 kt från nord
Temperatur 5°C
Fuktighet 81%
Tryck 1018 hPa
Sikt: 16.1 km
Spridda moln på en höjd av 1800 ft
Brutna moln på en höjd av 4000 ft
Mulet på en höjd av 11000 ft

METAR: KF05 290435Z AUTO 35013KT 10SM SCT018 BKN040 OVC110 05/02 A3006 RMK AO1 T00460015

Tid: 22:52 (04:52 UTC)


TAF: saknas

Aktuella väderrapporter och prognoser från 4000 flygplatser (METAR- och TAF-rapporter).

De tillgängliga stationerna syns som gula och röda prickar på kartan.

För musen över prickarna för att se namnen på stationerna.

Klicka sedan för att få väderrapporter och prognoser.

För att ändra kartan: Klicka på de gröna knapparna med ett svart kors på för att zooma in; den gröna knappen med ett streck på för att zooma ut; eller på de gröna pilarna för angränsande kartor.


METAR-TAF: